Time;durP1;ratioP1;P1;durP2;ratioP2;P2;SDS_P1;SDS_P2;PMS_P1;PMS_P2;Temp;Humidity;BMP_temperature;BMP_pressure;BME280_temperature;BME280_humidity;BME280_pressure;Samples;Min_cycle;Max_cycle;Signal;HPM_P1;HPM_P2
2023/04/09 00:02:22;;;;;;;468.73;438.33;;;7.40;20.70;;;;;;5039571;28;20179;-71
2023/04/09 00:04:48;;;;;;;403.27;378.47;;;7.40;20.80;;;;;;5041030;28;20670;-70
2023/04/09 00:07:13;;;;;;;378.60;354.63;;;7.30;21.10;;;;;;5040978;28;20191;-70
2023/04/09 00:09:39;;;;;;;154.13;140.37;;;7.30;21.10;;;;;;5040012;28;20203;-70
2023/04/09 00:12:04;;;;;;;360.53;337.13;;;7.30;21.20;;;;;;5040652;28;20179;-70
2023/04/09 00:14:30;;;;;;;326.63;302.60;;;7.30;20.90;;;;;;5038960;28;20207;-70
2023/04/09 00:16:55;;;;;;;369.67;346.47;;;7.30;21.20;;;;;;5040208;28;20770;-70
2023/04/09 00:19:21;;;;;;;377.33;353.93;;;7.30;21.20;;;;;;5041640;28;20205;-70
2023/04/09 00:21:47;;;;;;;378.67;355.07;;;7.30;20.90;;;;;;5039600;28;20206;-69
2023/04/09 00:24:13;;;;;;;183.27;169.37;;;7.30;20.90;;;;;;5042281;28;20175;-69
2023/04/09 00:26:38;;;;;;;354.07;330.60;;;7.30;21.10;;;;;;5040281;28;20177;-69
2023/04/09 00:29:04;;;;;;;344.37;322.23;;;7.30;20.80;;;;;;5042084;28;20461;-71
2023/04/09 00:31:30;;;;;;;381.47;357.57;;;7.30;28.40;;;;;;5042753;28;20195;-70
2023/04/09 00:33:55;;;;;;;431.77;399.80;;;7.30;29.80;;;;;;5042418;28;20179;-71
2023/04/09 00:36:22;;;;;;;103.67;92.37;;;;;;;;;;5041941;28;20190;-70
2023/04/09 00:38:49;;;;;;;371.13;347.90;;;7.50;31.40;;;;;;5042032;28;20196;-70
2023/04/09 00:41:16;;;;;;;290.20;271.23;;;7.40;24.00;;;;;;5042396;28;20475;-69
2023/04/09 00:43:42;;;;;;;388.73;363.93;;;7.30;23.50;;;;;;5041088;28;20426;-70
2023/04/09 00:46:07;;;;;;;111.40;100.03;;;7.30;24.00;;;;;;5042917;28;20461;-69
2023/04/09 00:48:33;;;;;;;357.70;335.40;;;7.40;24.30;;;;;;5043359;28;20214;-70
2023/04/09 00:50:59;;;;;;;320.00;299.30;;;7.30;24.20;;;;;;5043676;28;20175;-71
2023/04/09 00:53:24;;;;;;;356.13;334.20;;;7.30;24.30;;;;;;5041515;28;20198;-70
2023/04/09 00:55:52;;;;;;;363.67;341.40;;;7.30;24.10;;;;;;5042216;28;20416;-69
2023/04/09 00:58:17;;;;;;;371.63;348.20;;;7.30;24.10;;;;;;5038167;28;20215;-70
2023/04/09 01:00:43;;;;;;;409.27;383.30;;;7.30;24.00;;;;;;5041679;28;20476;-70
2023/04/09 01:03:08;;;;;;;330.17;308.77;;;7.30;23.70;;;;;;5040234;28;20172;-71
2023/04/09 01:05:49;;;;;;;342.47;320.80;;;7.30;23.80;;;;;;5039376;28;20180;-70
2023/04/09 01:08:26;;;;;;;235.67;218.53;;;7.30;21.70;;;;;;5040053;28;20198;-71
2023/04/09 01:11:05;;;;;;;364.07;341.40;;;7.20;22.20;;;;;;5039290;28;20419;-70
2023/04/09 01:13:46;;;;;;;313.40;293.73;;;7.20;22.30;;;;;;5040746;28;20832;-70
2023/04/09 01:16:14;;;;;;;256.60;238.30;;;7.10;22.40;;;;;;5042086;28;20414;-70
2023/04/09 01:18:48;;;;;;;382.47;358.57;;;7.10;22.20;;;;;;5040730;28;20802;-70
2023/04/09 01:21:18;;;;;;;392.57;368.53;;;7.20;22.50;;;;;;5043787;28;20485;-70
2023/04/09 01:23:58;;;;;;;368.33;345.63;;;7.10;22.60;;;;;;5046737;28;20414;-71
2023/04/09 01:26:42;;;;;;;379.93;355.97;;;7.20;23.20;;;;;;5040393;28;20418;-68
2023/04/09 01:29:09;;;;;;;375.97;353.17;;;7.20;24.90;;;;;;5043578;28;20453;-69
2023/04/09 01:31:38;;;;;;;238.73;221.87;;;7.20;25.80;;;;;;5044414;28;20422;-68
2023/04/09 01:34:06;;;;;;;357.57;335.90;;;;;;;;;;5045480;28;20402;-69
2023/04/09 01:36:32;;;;;;;605.57;565.00;;;7.20;36.60;;;;;;5045478;28;20469;-70
2023/04/09 01:39:00;;;;;;;344.50;322.67;;;7.10;25.50;;;;;;5045039;28;20480;-69
2023/04/09 01:41:27;;;;;;;350.60;327.83;;;7.10;25.60;;;;;;5046061;28;20795;-68
2023/04/09 01:43:52;;;;;;;331.13;310.13;;;7.10;24.90;;;;;;5045690;28;20776;-69
2023/04/09 01:46:22;;;;;;;402.27;373.83;;;7.10;33.20;;;;;;5044481;28;20870;-69
2023/04/09 01:48:48;;;;;;;442.57;412.80;;;7.00;35.00;;;;;;5045435;28;20862;-68
2023/04/09 01:51:14;;;;;;;292.60;273.77;;;7.00;37.00;;;;;;5047551;28;20414;-68
2023/04/09 01:53:40;;;;;;;295.43;274.47;;;7.00;40.50;;;;;;5046340;28;20409;-69
2023/04/09 01:56:07;;;;;;;354.23;332.37;;;7.10;36.80;;;;;;5046855;28;20432;-70
2023/04/09 01:58:33;;;;;;;310.87;289.90;;;7.10;34.10;;;;;;5045910;28;20465;-70
2023/04/09 02:01:05;;;;;;;274.43;254.87;;;7.00;33.30;;;;;;5044231;28;20473;-69
2023/04/09 02:07:02;;;;;;;300.80;279.63;;;7.00;22.90;;;;;;5021279;28;20430;-70
2023/04/09 02:09:30;;;;;;;188.30;173.43;;;7.00;23.40;;;;;;5023247;28;20438;-69
2023/04/09 02:12:00;;;;;;;329.10;308.27;;;7.00;23.40;;;;;;5024947;28;20416;-69
2023/04/09 02:14:27;;;;;;;313.53;293.30;;;7.00;26.00;;;;;;5023363;28;20478;-69
2023/04/09 02:16:52;;;;;;;338.63;314.70;;;7.10;22.60;;;;;;5025166;28;20462;-69
2023/04/09 02:19:18;;;;;;;297.50;277.40;;;7.10;22.40;;;;;;5024657;28;20431;-69
2023/04/09 02:21:44;;;;;;;348.00;326.63;;;7.00;22.90;;;;;;5021566;28;20226;-68
2023/04/09 02:24:10;;;;;;;343.67;321.60;;;7.00;22.60;;;;;;5019254;28;20260;-69
2023/04/09 02:26:35;;;;;;;351.87;328.97;;;7.10;22.00;;;;;;5023361;28;20445;-68
2023/04/09 02:29:01;;;;;;;340.23;315.33;;;7.10;21.50;;;;;;5024133;28;20226;-69
2023/04/09 02:31:26;;;;;;;376.83;353.00;;;7.10;21.50;;;;;;5025430;28;20237;-69
2023/04/09 02:33:53;;;;;;;456.67;426.50;;;7.10;21.50;;;;;;5024542;28;20379;-68
2023/04/09 02:36:18;;;;;;;448.77;418.90;;;7.10;21.50;;;;;;5024267;28;20187;-67
2023/04/09 02:38:44;;;;;;;301.43;281.33;;;7.00;21.40;;;;;;5024477;28;20436;-66
2023/04/09 02:41:09;;;;;;;363.73;340.37;;;7.00;21.80;;;;;;5023577;28;20164;-67
2023/04/09 02:43:35;;;;;;;325.50;302.97;;;7.10;21.90;;;;;;5023216;28;20180;-68
2023/04/09 02:46:01;;;;;;;434.60;405.67;;;7.10;21.80;;;;;;5039627;28;20172;-70
2023/04/09 02:48:26;;;;;;;220.63;204.27;;;7.10;21.50;;;;;;5022469;28;20214;-67
2023/04/09 02:50:52;;;;;;;249.83;230.00;;;7.10;21.50;;;;;;5024591;28;20207;-67
2023/04/09 02:53:17;;;;;;;345.60;323.90;;;7.10;21.50;;;;;;5024194;28;20540;-70
2023/04/09 02:55:43;;;;;;;411.90;382.83;;;7.10;21.80;;;;;;5018351;28;20203;-70
2023/04/09 02:58:09;;;;;;;381.10;357.00;;;7.10;21.70;;;;;;5036112;28;20582;-67
2023/04/09 03:00:34;;;;;;;402.27;375.23;;;7.10;21.90;;;;;;5021037;28;20191;-70
2023/04/09 03:03:00;;;;;;;322.13;300.90;;;7.00;22.20;;;;;;5018764;28;20211;-68
2023/04/09 03:05:25;;;;;;;402.17;376.03;;;7.00;22.80;;;;;;5019741;28;20177;-68
2023/04/09 03:07:51;;;;;;;343.63;321.87;;;7.00;22.10;;;;;;5021421;28;20192;-70
2023/04/09 03:10:16;;;;;;;505.43;472.17;;;7.00;22.80;;;;;;5019972;28;20188;-68
2023/04/09 03:12:43;;;;;;;391.27;367.53;;;7.00;22.50;;;;;;5019980;28;20184;-68
2023/04/09 03:15:09;;;;;;;358.57;335.43;;;7.10;22.40;;;;;;5020293;28;20688;-68
2023/04/09 03:17:35;;;;;;;371.93;348.07;;;7.10;22.30;;;;;;5020899;28;20494;-68
2023/04/09 03:20:01;;;;;;;336.27;314.67;;;7.10;22.20;;;;;;5020774;28;20437;-68
2023/04/09 03:22:26;;;;;;;537.57;501.73;;;7.10;21.90;;;;;;5021004;28;20211;-70
2023/04/09 03:24:52;;;;;;;283.40;265.47;;;7.00;22.60;;;;;;5021763;28;20201;-67
2023/04/09 03:27:17;;;;;;;341.77;318.87;;;7.10;23.00;;;;;;5021174;28;20202;-67
2023/04/09 03:29:43;;;;;;;389.20;364.40;;;7.10;22.80;;;;;;5021464;28;20227;-68
2023/04/09 03:32:08;;;;;;;368.90;345.43;;;7.00;22.90;;;;;;5020997;28;20216;-68
2023/04/09 03:34:34;;;;;;;353.43;330.87;;;7.00;23.00;;;;;;5021080;28;20176;-68
2023/04/09 03:36:59;;;;;;;328.07;306.97;;;6.90;23.20;;;;;;5038096;28;20242;-68
2023/04/09 03:39:29;;;;;;;295.90;276.80;;;6.90;23.30;;;;;;5021169;28;20191;-70
2023/04/09 03:41:56;;;;;;;323.47;302.13;;;6.90;23.40;;;;;;5023384;28;20214;-70
2023/04/09 03:44:22;;;;;;;146.37;134.10;;;6.90;23.70;;;;;;5025524;28;20411;-69
2023/04/09 03:46:48;;;;;;;308.67;288.17;;;6.90;23.80;;;;;;5025717;28;20453;-69
2023/04/09 03:49:13;;;;;;;360.07;336.87;;;6.90;23.60;;;;;;5024087;28;20450;-70
2023/04/09 03:51:39;;;;;;;325.23;302.63;;;6.90;23.70;;;;;;5024419;28;20275;-69
2023/04/09 03:54:04;;;;;;;258.10;239.87;;;6.80;23.70;;;;;;5025395;28;20178;-70
2023/04/09 03:56:30;;;;;;;364.53;340.77;;;6.90;24.10;;;;;;5024815;28;20180;-69
2023/04/09 03:58:55;;;;;;;277.70;258.13;;;6.90;23.40;;;;;;5025332;28;20196;-70
2023/04/09 04:01:21;;;;;;;492.33;457.63;;;6.90;23.40;;;;;;5025405;28;20595;-70
2023/04/09 04:03:46;;;;;;;347.47;325.93;;;6.90;23.10;;;;;;5025445;28;20234;-70
2023/04/09 04:06:12;;;;;;;343.60;320.73;;;7.00;23.30;;;;;;5025035;28;20197;-69
2023/04/09 04:08:38;;;;;;;330.73;309.43;;;7.00;22.70;;;;;;5025183;28;20257;-70
2023/04/09 04:11:04;;;;;;;350.20;328.30;;;7.00;23.00;;;;;;5025234;28;20236;-69
2023/04/09 04:13:30;;;;;;;735.83;683.93;;;7.00;23.20;;;;;;5024708;28;20172;-70
2023/04/09 04:15:55;;;;;;;422.17;394.53;;;7.00;23.20;;;;;;5024790;28;20469;-70
2023/04/09 04:18:21;;;;;;;400.50;373.67;;;7.00;23.20;;;;;;5023591;28;20216;-70
2023/04/09 04:20:46;;;;;;;354.23;332.17;;;6.90;23.30;;;;;;5022860;28;20187;-69
2023/04/09 04:23:12;;;;;;;229.07;212.13;;;6.90;23.40;;;;;;5024431;28;20216;-70
2023/04/09 04:25:40;;;;;;;369.70;346.20;;;6.90;23.60;;;;;;5039816;28;20183;-70
2023/04/09 04:28:06;;;;;;;376.17;349.87;;;6.90;23.50;;;;;;5024523;28;20239;-70
2023/04/09 04:30:31;;;;;;;446.43;416.47;;;6.80;23.50;;;;;;5013969;28;20415;-68
2023/04/09 04:32:57;;;;;;;327.73;307.17;;;6.80;23.70;;;;;;5011054;28;20587;-69
2023/04/09 04:35:22;;;;;;;322.57;301.17;;;6.80;23.90;;;;;;5013905;28;20192;-70
2023/04/09 04:37:51;;;;;;;558.77;518.73;;;6.80;23.90;;;;;;5012113;28;20587;-71
2023/04/09 04:40:17;;;;;;;296.67;276.20;;;6.80;24.10;;;;;;5012089;28;20176;-71
2023/04/09 04:42:42;;;;;;;321.80;300.73;;;6.80;24.20;;;;;;5011816;28;20472;-70
2023/04/09 04:45:08;;;;;;;325.20;304.50;;;6.80;24.30;;;;;;5012195;28;20184;-70
2023/04/09 04:47:34;;;;;;;307.93;288.23;;;6.80;24.40;;;;;;5011962;28;20683;-70
2023/04/09 04:50:00;;;;;;;333.60;312.33;;;6.80;24.20;;;;;;5011926;28;20202;-70
2023/04/09 04:52:25;;;;;;;323.23;302.77;;;6.80;24.20;;;;;;5017589;28;20270;-71
2023/04/09 04:54:51;;;;;;;323.17;302.30;;;6.80;24.00;;;;;;5031690;28;20828;-71
2023/04/09 04:57:16;;;;;;;217.67;201.07;;;6.90;24.10;;;;;;5034124;28;20215;-69
2023/04/09 04:59:42;;;;;;;234.00;217.30;;;6.90;24.30;;;;;;5035746;28;20192;-70
2023/04/09 05:02:08;;;;;;;311.77;291.07;;;6.90;24.30;;;;;;5034144;28;20175;-70
2023/04/09 05:04:33;;;;;;;278.03;259.27;;;6.80;24.70;;;;;;5035629;28;20648;-69
2023/04/09 05:06:59;;;;;;;303.40;283.80;;;6.80;24.40;;;;;;5035730;28;20183;-70
2023/04/09 05:09:25;;;;;;;335.03;313.00;;;6.80;25.10;;;;;;5034321;28;20726;-70
2023/04/09 05:11:50;;;;;;;478.30;444.77;;;6.90;24.70;;;;;;5029668;28;20462;-70
2023/04/09 05:14:16;;;;;;;307.93;287.53;;;6.90;24.80;;;;;;5016123;28;20732;-71
2023/04/09 05:16:41;;;;;;;325.60;304.97;;;6.90;24.40;;;;;;5015971;28;20232;-70
2023/04/09 05:19:07;;;;;;;251.47;235.10;;;6.90;24.60;;;;;;5015566;28;20196;-70
2023/04/09 05:21:33;;;;;;;242.27;225.47;;;7.00;24.30;;;;;;5016763;28;20180;-71
2023/04/09 05:23:58;;;;;;;313.73;293.73;;;7.10;23.80;;;;;;5015673;28;20229;-70
2023/04/09 05:26:24;;;;;;;225.17;208.63;;;7.10;23.70;;;;;;5017692;28;20661;-70
2023/04/09 05:28:51;;;;;;;288.77;269.90;;;7.20;23.90;;;;;;5016479;28;20601;-69
2023/04/09 05:31:16;;;;;;;313.93;293.83;;;7.30;23.30;;;;;;5016571;28;20171;-71
2023/04/09 05:33:42;;;;;;;134.20;121.43;;;7.30;23.20;;;;;;5015929;28;20798;-70
2023/04/09 05:36:07;;;;;;;445.70;414.83;;;7.40;22.80;;;;;;5016415;28;20176;-70
2023/04/09 05:38:33;;;;;;;513.77;479.53;;;7.50;22.20;;;;;;5016160;28;20254;-71
2023/04/09 05:40:59;;;;;;;388.40;364.03;;;7.50;22.00;;;;;;5015922;28;20171;-70
2023/04/09 05:43:25;;;;;;;347.87;324.83;;;7.60;22.40;;;;;;5013796;28;20430;-71
2023/04/09 05:45:50;;;;;;;382.10;358.00;;;7.70;21.90;;;;;;5015257;28;20473;-70
2023/04/09 05:48:17;;;;;;;288.67;269.13;;;7.80;21.90;;;;;;5016245;28;20196;-70
2023/04/09 05:50:51;;;;;;;312.13;291.37;;;7.90;22.00;;;;;;5016264;28;20208;-70
2023/04/09 05:53:18;;;;;;;379.23;353.13;;;8.10;20.90;;;;;;5015419;28;20981;-70
2023/04/09 05:55:45;;;;;;;300.23;279.50;;;8.30;20.50;;;;;;5015485;28;20446;-70
2023/04/09 05:58:11;;;;;;;347.20;324.53;;;8.40;20.00;;;;;;5014163;28;20521;-68
2023/04/09 06:00:37;;;;;;;415.80;389.17;;;8.50;19.40;;;;;;5015639;28;20426;-68
2023/04/09 06:03:03;;;;;;;161.33;146.63;;;8.70;19.20;;;;;;5015221;28;20416;-69
2023/04/09 06:05:29;;;;;;;138.40;116.50;;;8.70;18.30;;;;;;5013982;28;20551;-69
2023/04/09 06:07:55;;;;;;;384.33;358.10;;;8.60;17.50;;;;;;5016415;28;20539;-69
2023/04/09 06:10:20;;;;;;;639.93;598.93;;;8.50;18.00;;;;;;5037760;28;20179;-69
2023/04/09 06:12:46;;;;;;;326.80;301.10;;;8.30;18.00;;;;;;5040637;28;20430;-69
2023/04/09 06:15:11;;;;;;;286.03;265.10;;;8.20;18.80;;;;;;5036667;28;20199;-69
2023/04/09 06:17:37;;;;;;;405.67;376.50;;;8.30;19.00;;;;;;5023480;28;20207;-69
2023/04/09 06:20:03;;;;;;;336.60;312.77;;;8.70;18.60;;;;;;5034426;28;20197;-69
2023/04/09 06:22:28;;;;;;;399.13;372.57;;;11.00;14.10;;;;;;5034514;28;20222;-69
2023/04/09 06:24:54;;;;;;;601.80;558.70;;;13.60;7.70;;;;;;5034604;28;20509;-69
2023/04/09 06:27:20;;;;;;;552.80;512.57;;;15.90;3.20;;;;;;5034614;28;20207;-69
2023/04/09 06:29:46;;;;;;;592.60;549.40;;;17.50;1.00;;;;;;5034378;28;20218;-69
2023/04/09 06:32:11;;;;;;;541.70;501.63;;;18.90;1.00;;;;;;5033946;28;20430;-69
2023/04/09 06:34:37;;;;;;;572.20;531.47;;;19.70;1.00;;;;;;5034235;28;20175;-70
2023/04/09 06:37:02;;;;;;;595.77;550.33;;;20.50;1.00;;;;;;5021753;28;20242;-67
2023/04/09 06:39:28;;;;;;;526.17;488.30;;;21.50;1.00;;;;;;5014159;28;20749;-68
2023/04/09 06:41:53;;;;;;;305.17;282.37;;;22.00;1.00;;;;;;5013748;28;20211;-68
2023/04/09 06:44:20;;;;;;;506.90;471.00;;;22.60;1.00;;;;;;5014057;28;20179;-67
2023/04/09 06:46:46;;;;;;;522.37;484.77;;;23.30;1.00;;;;;;5029351;28;20583;-66
2023/04/09 06:49:11;;;;;;;610.03;565.73;;;23.30;1.00;;;;;;5033528;28;20513;-68
2023/04/09 06:51:37;;;;;;;571.63;532.63;;;23.30;1.00;;;;;;5033084;28;20509;-68
2023/04/09 06:54:02;;;;;;;617.13;573.53;;;21.10;1.00;;;;;;5024811;28;20230;-68
2023/04/09 06:56:28;;;;;;;593.20;551.30;;;22.30;1.00;;;;;;5013756;28;20172;-69
2023/04/09 06:58:53;;;;;;;728.07;674.37;;;23.50;1.00;;;;;;5013630;28;20196;-67
2023/04/09 07:01:19;;;;;;;701.80;649.40;;;24.40;1.00;;;;;;5013891;28;20215;-68
2023/04/09 07:03:45;;;;;;;659.60;610.83;;;25.00;1.00;;;;;;5019139;28;20188;-69
2023/04/09 07:06:11;;;;;;;479.67;446.17;;;25.30;1.00;;;;;;5013468;28;20192;-68
2023/04/09 07:08:36;;;;;;;623.77;580.50;;;25.90;1.00;;;;;;5012912;28;20453;-68
2023/04/09 07:11:02;;;;;;;694.37;645.13;;;24.50;1.00;;;;;;5013592;28;20207;-68
2023/04/09 07:13:28;;;;;;;616.87;574.40;;;23.90;1.00;;;;;;5013878;28;20180;-69
2023/04/09 07:15:53;;;;;;;722.27;671.37;;;23.80;1.00;;;;;;5012669;28;20222;-69
2023/04/09 07:18:19;;;;;;;786.87;729.63;;;23.20;1.00;;;;;;5013931;28;20212;-69
2023/04/09 07:20:45;;;;;;;627.87;582.17;;;23.30;1.00;;;;;;5013345;28;20423;-68
2023/04/09 07:23:10;;;;;;;617.13;573.47;;;23.50;1.00;;;;;;5013570;28;20238;-68
2023/04/09 07:25:36;;;;;;;605.97;564.10;;;23.40;1.00;;;;;;5014405;28;20180;-68
2023/04/09 07:28:03;;;;;;;620.10;577.43;;;22.60;1.00;;;;;;5013543;28;20184;-69
2023/04/09 07:30:29;;;;;;;601.53;560.90;;;;;;;;;;5013619;28;20180;-69
2023/04/09 07:32:55;;;;;;;500.87;467.37;;;21.90;1.00;;;;;;5012041;28;20995;-69
2023/04/09 07:35:20;;;;;;;549.43;511.10;;;;;;;;;;5013261;28;20503;-69
2023/04/09 07:37:46;;;;;;;260.03;241.03;;;18.60;1.00;;;;;;5013183;28;20215;-69
2023/04/09 07:40:12;;;;;;;401.23;371.97;;;16.20;1.00;;;;;;5013132;28;20436;-68
2023/04/09 07:42:38;;;;;;;244.40;225.90;;;15.60;1.00;;;;;;5011674;28;20180;-68
2023/04/09 07:45:05;;;;;;;560.07;521.17;;;15.00;1.00;;;;;;5013188;28;20211;-68
2023/04/09 07:47:31;;;;;;;363.03;337.83;;;14.20;8.90;;;;;;5013263;28;20418;-68
2023/04/09 07:49:57;;;;;;;477.13;447.20;;;;;;;;;;5013068;28;20513;-69
2023/04/09 07:52:22;;;;;;;123.63;110.73;;;13.60;1.00;;;;;;5013322;28;20558;-68
2023/04/09 07:54:48;;;;;;;396.17;367.60;;;13.00;16.40;;;;;;5013137;28;20522;-69
2023/04/09 07:57:14;;;;;;;135.77;123.20;;;13.30;1.00;;;;;;5012851;28;20205;-68
2023/04/09 07:59:39;;;;;;;493.73;459.10;;;13.80;1.00;;;;;;5013141;28;20277;-68
2023/04/09 08:02:05;;;;;;;521.40;483.57;;;13.90;1.00;;;;;;5012948;28;20183;-68
2023/04/09 08:04:35;;;;;;;627.10;583.73;;;;;;;;;;5013138;28;20725;-68
2023/04/09 08:07:00;;;;;;;356.87;331.37;;;14.10;1.00;;;;;;5013020;28;20424;-68
2023/04/09 08:09:26;;;;;;;440.37;408.67;;;14.40;1.00;;;;;;5012675;28;21011;-68
2023/04/09 08:11:52;;;;;;;600.53;556.30;;;15.80;3.10;;;;;;5012553;28;20668;-68
2023/04/09 08:14:17;;;;;;;466.93;434.57;;;15.00;1.00;;;;;;5012783;28;20220;-68
2023/04/09 08:16:45;;;;;;;412.33;381.50;;;13.70;1.00;;;;;;5012640;28;20425;-68
2023/04/09 08:19:12;;;;;;;212.57;195.57;;;;;;;;;;5012636;28;20192;-68
2023/04/09 08:21:39;;;;;;;498.40;463.27;;;;;;;;;;5012604;28;20498;-68
2023/04/09 08:24:05;;;;;;;115.63;96.10;;;11.90;1.50;;;;;;5012670;28;20403;-68
2023/04/09 08:26:31;;;;;;;317.43;295.93;;;11.80;1.90;;;;;;5012648;28;20414;-68
2023/04/09 08:28:57;;;;;;;278.57;258.90;;;11.80;1.90;;;;;;5012430;28;20458;-68
2023/04/09 08:31:22;;;;;;;261.50;241.53;;;11.80;1.90;;;;;;5011778;28;20203;-68
2023/04/09 08:33:48;;;;;;;250.43;231.50;;;11.90;2.10;;;;;;5012372;28;20207;-68
2023/04/09 08:36:13;;;;;;;229.33;211.13;;;12.40;1.00;;;;;;5012474;28;20534;-68
2023/04/09 08:38:39;;;;;;;391.90;362.80;;;13.40;1.00;;;;;;5012270;28;20217;-68
2023/04/09 08:41:05;;;;;;;377.00;349.13;;;15.70;3.30;;;;;;5012354;28;20211;-68
2023/04/09 08:43:35;;;;;;;421.23;390.80;;;16.80;1.00;;;;;;5011252;28;20194;-68
2023/04/09 08:46:02;;;;;;;264.57;245.10;;;17.00;1.00;;;;;;5012402;28;20524;-68
2023/04/09 08:48:28;;;;;;;397.33;368.10;;;16.90;1.00;;;;;;5012215;28;20461;-68
2023/04/09 08:50:54;;;;;;;380.80;354.10;;;16.60;1.00;;;;;;5012356;28;20419;-68
2023/04/09 08:53:23;;;;;;;369.90;343.57;;;15.30;1.00;;;;;;5012077;28;20419;-68
2023/04/09 08:55:49;;;;;;;301.97;279.07;;;;;;;;;;5011092;28;20594;-68
2023/04/09 08:58:14;;;;;;;302.03;280.13;;;13.30;8.30;;;;;;5012665;28;20477;-68
2023/04/09 09:00:40;;;;;;;280.90;259.27;;;12.80;1.00;;;;;;5011100;28;20423;-69
2023/04/09 09:03:07;;;;;;;250.10;231.43;;;;;;;;;;5012064;28;20183;-68
2023/04/09 09:05:43;;;;;;;304.83;282.60;;;;;;;;;;5012317;28;20179;-68
2023/04/09 09:08:11;;;;;;;313.87;292.27;;;12.10;19.90;;;;;;5012178;28;20501;-69
2023/04/09 09:10:44;;;;;;;273.03;251.97;;;12.10;7.90;;;;;;5012259;28;20979;-69
2023/04/09 09:13:16;;;;;;;330.20;306.47;;;;;;;;;;5011178;28;20924;-69
2023/04/09 09:15:42;;;;;;;316.77;293.63;;;;;;;;;;5012666;28;20928;-69
2023/04/09 09:18:08;;;;;;;345.13;320.57;;;;;;;;;;5011086;28;21044;-68
2023/04/09 09:20:34;;;;;;;136.97;124.40;;;;;;;;;;5012323;28;20494;-69
2023/04/09 09:23:00;;;;;;;279.17;259.67;;;;;;;;;;5012006;28;20498;-68
2023/04/09 09:25:26;;;;;;;185.40;171.03;;;;;;;;;;5012425;28;20542;-68
2023/04/09 09:27:52;;;;;;;109.73;99.00;;;;;;;;;;5010916;28;20898;-69
2023/04/09 09:30:23;;;;;;;276.90;256.13;;;;;;;;;;5012048;28;20439;-69
2023/04/09 09:33:04;;;;;;;284.77;263.03;;;;;;;;;;5010477;28;20428;-69
2023/04/09 09:35:30;;;;;;;212.93;196.60;;;;;;;;;;5011920;28;20412;-69
2023/04/09 09:38:03;;;;;;;312.10;289.17;;;;;;;;;;5010547;28;20555;-69
2023/04/09 09:40:29;;;;;;;340.53;315.80;;;;;;;;;;5011883;28;20482;-69
2023/04/09 09:42:58;;;;;;;286.67;263.60;;;;;;;;;;5013496;28;20494;-69
2023/04/09 09:45:25;;;;;;;287.70;267.03;;;;;;;;;;5014634;28;20415;-69
2023/04/09 09:47:52;;;;;;;504.63;465.67;;;;;;;;;;5014402;28;20514;-68
2023/04/09 09:50:19;;;;;;;455.50;421.97;;;;;;;;;;5014428;28;20513;-68
2023/04/09 09:52:46;;;;;;;156.47;142.60;;;;;;;;;;5014188;28;20433;-68
2023/04/09 09:55:15;;;;;;;211.83;194.73;;;;;;;;;;5015817;28;20403;-69
2023/04/09 09:57:44;;;;;;;263.43;243.53;;;;;;;;;;5014157;28;20552;-68
2023/04/09 10:00:12;;;;;;;199.87;183.37;;;12.70;15.30;;;;;;5015468;28;20488;-68
2023/04/09 10:02:46;;;;;;;463.63;432.33;;;11.20;1.00;;;;;;5015093;28;20894;-68
2023/04/09 10:05:13;;;;;;;334.07;310.17;;;11.40;1.00;;;;;;5015535;28;20486;-69
2023/04/09 10:07:39;;;;;;;338.07;313.83;;;11.70;1.00;;;;;;5015231;28;20419;-68
2023/04/09 10:10:06;;;;;;;217.30;200.10;;;12.10;1.00;;;;;;5013870;28;20438;-68
2023/04/09 10:12:33;;;;;;;509.40;472.23;;;12.60;1.00;;;;;;5014715;28;20427;-68
2023/04/09 10:15:03;;;;;;;364.13;338.63;;;12.80;1.00;;;;;;5015001;28;20411;-68
2023/04/09 10:17:29;;;;;;;419.47;390.47;;;12.90;1.00;;;;;;5014940;28;20830;-68
2023/04/09 10:20:18;;;;;;;513.10;477.93;;;13.00;1.00;;;;;;5014684;28;20432;-68
2023/04/09 10:22:48;;;;;;;226.70;210.13;;;12.70;1.00;;;;;;5014478;28;20513;-68
2023/04/09 10:25:15;;;;;;;268.97;249.20;;;12.80;1.00;;;;;;5014880;28;20682;-68
2023/04/09 10:27:44;;;;;;;325.60;301.87;;;13.10;1.00;;;;;;5014685;28;20437;-68
2023/04/09 10:30:31;;;;;;;351.27;327.27;;;13.10;1.00;;;;;;5014881;28;20483;-68
2023/04/09 10:33:10;;;;;;;428.87;399.33;;;13.50;1.00;;;;;;5014188;28;20424;-69
2023/04/09 10:35:36;;;;;;;354.53;330.27;;;14.00;1.00;;;;;;5014729;28;20987;-68
2023/04/09 10:38:02;;;;;;;402.83;374.23;;;13.70;1.00;;;;;;5014290;28;20627;-68
2023/04/09 10:40:28;;;;;;;379.87;352.17;;;13.60;1.00;;;;;;5014438;28;20417;-68
2023/04/09 10:42:55;;;;;;;589.53;545.87;;;13.90;1.00;;;;;;5014041;28;20653;-68
2023/04/09 10:45:20;;;;;;;390.00;361.57;;;14.00;1.00;;;;;;5014298;28;20184;-68
2023/04/09 10:47:50;;;;;;;345.60;320.13;;;13.80;1.00;;;;;;5014382;28;21071;-68
2023/04/09 10:50:25;;;;;;;308.27;285.60;;;13.60;1.00;;;;;;5014076;28;20235;-68
2023/04/09 10:52:53;;;;;;;320.47;297.20;;;13.80;1.00;;;;;;5013899;28;20446;-68
2023/04/09 10:55:39;;;;;;;433.93;403.17;;;14.20;1.00;;;;;;5012037;28;20414;-68
2023/04/09 10:58:09;;;;;;;241.53;223.30;;;13.70;1.00;;;;;;5013785;28;20516;-68
2023/04/09 11:00:42;;;;;;;301.33;280.47;;;13.80;1.00;;;;;;5013962;28;20409;-68
2023/04/09 11:03:17;;;;;;;364.83;340.67;;;13.90;1.00;;;;;;5013744;28;20418;-68
2023/04/09 11:05:48;;;;;;;353.97;328.27;;;14.00;1.00;;;;;;5013846;28;20469;-68
2023/04/09 11:08:15;;;;;;;512.30;473.13;;;13.90;1.00;;;;;;5012559;28;20869;-69
2023/04/09 11:10:43;;;;;;;369.83;345.17;;;13.70;1.00;;;;;;5013782;28;20445;-68
2023/04/09 11:13:13;;;;;;;630.70;587.60;;;13.30;1.00;;;;;;5013512;28;20433;-68
2023/04/09 11:15:39;;;;;;;355.87;330.03;;;12.90;1.00;;;;;;5013594;28;20413;-68
2023/04/09 11:18:05;;;;;;;321.37;298.43;;;12.60;1.00;;;;;;5013538;28;20473;-69
2023/04/09 11:20:33;;;;;;;244.70;226.57;;;12.70;1.00;;;;;;5013601;28;20176;-69
2023/04/09 11:22:59;;;;;;;303.83;282.30;;;13.20;1.00;;;;;;5013248;28;20567;-69
2023/04/09 11:25:32;;;;;;;263.93;243.53;;;13.80;1.00;;;;;;5013469;28;20438;-68
2023/04/09 11:27:59;;;;;;;457.13;426.47;;;14.00;1.00;;;;;;5012013;28;20430;-69
2023/04/09 11:30:25;;;;;;;397.77;370.23;;;14.20;1.00;;;;;;5013343;28;20785;-68
2023/04/09 11:32:50;;;;;;;463.43;431.93;;;14.40;1.00;;;;;;5013163;28;20428;-68
2023/04/09 11:35:18;;;;;;;479.53;446.73;;;14.40;1.00;;;;;;5013334;28;20586;-68
2023/04/09 11:37:45;;;;;;;303.33;282.40;;;14.20;1.00;;;;;;5013244;28;20206;-68
2023/04/09 11:40:23;;;;;;;352.37;327.40;;;14.10;1.00;;;;;;5011798;28;20444;-69
2023/04/09 11:42:49;;;;;;;403.47;376.03;;;14.30;1.00;;;;;;5011711;28;20418;-68
2023/04/09 11:45:16;;;;;;;346.73;323.00;;;14.60;1.00;;;;;;5013097;28;20564;-68
2023/04/09 11:47:43;;;;;;;309.67;289.17;;;14.50;1.00;;;;;;5013167;28;20765;-68
2023/04/09 11:50:10;;;;;;;164.77;150.57;;;14.80;1.00;;;;;;5013012;28;20791;-68
2023/04/09 11:52:37;;;;;;;354.80;330.47;;;15.00;1.00;;;;;;5012763;28;20927;-68
2023/04/09 11:55:03;;;;;;;667.63;619.73;;;14.90;1.00;;;;;;5012996;28;20415;-69
2023/04/09 11:57:43;;;;;;;602.27;554.60;;;14.50;1.00;;;;;;5012176;28;20461;-68
2023/04/09 12:00:14;;;;;;;360.03;336.40;;;14.10;1.00;;;;;;5021365;28;20457;-68
2023/04/09 12:02:50;;;;;;;287.63;266.57;;;14.00;1.00;;;;;;5012656;28;20446;-69
2023/04/09 12:05:27;;;;;;;387.73;359.93;;;14.10;1.00;;;;;;5027855;28;20476;-69
2023/04/09 12:08:05;;;;;;;312.83;291.10;;;14.30;1.00;;;;;;5033709;28;20787;-69
2023/04/09 12:10:36;;;;;;;436.40;407.30;;;14.20;1.00;;;;;;5032451;28;20417;-69
2023/04/09 12:13:09;;;;;;;509.43;476.50;;;14.60;1.00;;;;;;5033441;28;20486;-68
2023/04/09 12:15:40;;;;;;;326.03;303.37;;;14.70;1.00;;;;;;5033550;28;20409;-69
2023/04/09 12:18:10;;;;;;;495.53;457.93;;;14.90;1.00;;;;;;5031409;28;20470;-69
2023/04/09 12:20:43;;;;;;;600.67;559.23;;;14.80;1.00;;;;;;5033021;28;20416;-69
2023/04/09 12:23:10;;;;;;;249.73;230.67;;;14.60;1.00;;;;;;5031326;28;20517;-69
2023/04/09 12:25:44;;;;;;;486.90;453.40;;;14.80;1.00;;;;;;5031293;28;20931;-69
2023/04/09 12:28:14;;;;;;;371.50;345.97;;;14.90;1.00;;;;;;5032316;28;20525;-69
2023/04/09 12:30:39;;;;;;;558.50;517.90;;;15.10;1.00;;;;;;5032535;28;20428;-69